Portada
METAR-TAF:

METAR-TAF

Aeropuertos :

Tiaret, Argelia

latitud: 35-15N, longitud: 001-26E, altitud: 1127 m

Observación

El informe se hizo hace 41 minutos, a las 01:00 UTC
Viento 3 kt del sureste
Temperatura 10°C
Humedad 87%
Presión 1019 hPa
Visibilidad 10 km o más
sin nubes por debajo de 1500 m y sin presencia de cumulonimbus.

METAR: DAOB 230100Z 13003KT CAVOK 10/08 Q1019

Hora: 02:41 (01:41 UTC)

Pronóstico

El informe se hizo hace 2 horas y 41 minutos, a las 23:00 UTC
Pronóstico válido del 23 a las 00 UTC al 23 a las 24 UTC
Viento 8 kt del sureste
Visibilidad 10 km o más
sin nubes por debajo de 1500 m y sin presencia de cumulonimbus.
Evolucionando progresivamente
del 23 a las 08 UTC al 23 a las 11 UTC
Viento 12 kt del sur-suroeste
Probabilidad 30% :
Temporalmente
del 23 a las 15 UTC al 23 a las 20 UTC
Escasas nubes a una altura de 2600 ft, Cumulus congestus.

TAF: DAOB 222300Z 2300/2324 14008KT CAVOK BECMG 2308/2311 20012KT PROB30 TEMPO 2315/2320 FEW026TCU

Observaciones y pronósticos meteorológicos de más de 4000 aeropuertos (mensajes METAR y TAF).

Los puntos amarillos y rojos representan las estaciones disponibles.

Ponga el ratón en el punto deseado para ver el nombre de la estación.

Haga clic para ver las observaciones y los pronósticos meteorológicos.

Para cambiar el mapa : haga clic en los botones verdes con una cruz de color negro para hacer un zoom, en el botón verde con un guión para alejar o en las flechas verdes para mapas adyacentes.


METAR-TAF: